createdAt,value
2022-12-24T00:02:10.738Z,6.65
2022-12-24T00:05:12.439Z,6.30
2022-12-24T00:08:14.029Z,6.70
2022-12-24T00:11:15.603Z,5.85
2022-12-24T00:14:17.159Z,5.70
2022-12-24T00:17:18.951Z,6.40
2022-12-24T00:20:20.478Z,6.10
2022-12-24T00:23:22.046Z,6.20
2022-12-24T00:26:23.602Z,6.18
2022-12-24T00:29:25.230Z,5.82
2022-12-24T00:32:26.773Z,5.78
2022-12-24T00:35:28.335Z,6.50
2022-12-24T00:38:29.890Z,7.13
2022-12-24T00:41:31.601Z,6.03
2022-12-24T00:44:33.126Z,5.82
2022-12-24T00:47:34.677Z,6.47
2022-12-24T00:50:36.230Z,6.35
2022-12-24T00:53:37.798Z,6.70
2022-12-24T00:56:39.336Z,6.75
2022-12-24T00:59:40.867Z,7.05
2022-12-24T01:02:42.608Z,7.32
2022-12-24T01:05:44.238Z,6.68
2022-12-24T01:08:46.043Z,6.30
2022-12-24T01:11:47.616Z,7.72
2022-12-24T01:14:49.249Z,7.68
2022-12-24T01:17:50.816Z,7.57
2022-12-24T01:20:57.407Z,7.50
2022-12-24T01:23:59.050Z,7.05
2022-12-24T01:27:00.636Z,7.70
2022-12-24T01:30:02.363Z,8.13
2022-12-24T01:33:03.962Z,7.22
2022-12-24T01:36:05.868Z,8.35
2022-12-24T01:39:07.402Z,8.35
2022-12-24T01:42:45.356Z,7.57
2022-12-24T01:45:49.793Z,7.63
2022-12-24T01:49:06.553Z,7.38
2022-12-24T01:52:14.757Z,6.60
2022-12-24T01:55:18.493Z,7.38
2022-12-24T01:58:22.525Z,7.32
2022-12-24T02:01:24.645Z,7.80
2022-12-24T02:04:37.391Z,7.38
2022-12-24T02:07:39.546Z,8.07
2022-12-24T02:10:41.336Z,8.13
2022-12-24T02:13:47.261Z,7.60
2022-12-24T02:17:13.250Z,7.50
2022-12-24T02:20:26.583Z,8.38
2022-12-24T02:24:02.238Z,7.47
2022-12-24T02:27:28.500Z,8.20
2022-12-24T02:30:48.667Z,8.15
2022-12-24T02:33:59.512Z,8.55
2022-12-24T02:37:06.603Z,7.30
2022-12-24T02:40:17.048Z,7.43
2022-12-24T02:43:24.194Z,7.20
2022-12-24T02:46:30.158Z,7.43
2022-12-24T02:49:31.787Z,7.07
2022-12-24T02:52:42.192Z,6.55
2022-12-24T02:55:59.849Z,7.63
2022-12-24T02:59:28.446Z,7.90
2022-12-24T03:03:08.103Z,8.77
2022-12-24T03:06:15.777Z,7.22
2022-12-24T03:09:50.281Z,8.43
2022-12-24T03:12:55.595Z,7.00
2022-12-24T03:15:57.278Z,7.90
2022-12-24T03:19:02.917Z,7.70
2022-12-24T03:22:09.495Z,7.13
2022-12-24T03:25:11.026Z,8.10
2022-12-24T03:28:15.220Z,6.93
2022-12-24T03:31:18.595Z,7.28
2022-12-24T03:34:20.259Z,7.00
2022-12-24T03:37:22.035Z,6.57
2022-12-24T03:40:23.607Z,7.30
2022-12-24T03:43:25.278Z,7.97
2022-12-24T03:46:26.941Z,7.15
2022-12-24T03:49:28.626Z,5.80
2022-12-24T03:52:30.222Z,6.72
2022-12-24T03:55:31.809Z,7.25
2022-12-24T03:58:33.383Z,6.05
2022-12-24T04:01:35.094Z,6.32
2022-12-24T04:04:37.678Z,5.72
2022-12-24T04:07:39.288Z,6.10
2022-12-24T04:10:40.829Z,6.22
2022-12-24T04:13:42.928Z,6.20
2022-12-24T04:16:44.581Z,6.13
2022-12-24T04:19:46.183Z,5.82
2022-12-24T04:22:47.715Z,6.40
2022-12-24T04:25:49.318Z,5.63
2022-12-24T04:28:57.383Z,6.28
2022-12-24T04:31:59.004Z,5.47
2022-12-24T04:35:00.586Z,6.18
2022-12-24T04:38:02.127Z,5.50
2022-12-24T04:41:05.431Z,5.70
2022-12-24T04:44:07.016Z,5.50
2022-12-24T04:47:08.627Z,5.95
2022-12-24T04:50:10.850Z,6.60
2022-12-24T04:53:14.830Z,7.03
2022-12-24T04:56:19.372Z,6.35
2022-12-24T04:59:20.933Z,6.45
2022-12-24T05:02:22.597Z,6.07
2022-12-24T05:05:24.211Z,5.95
2022-12-24T05:08:25.733Z,5.57
2022-12-24T05:11:28.080Z,6.30
2022-12-24T05:14:29.637Z,7.03
2022-12-24T05:17:31.229Z,7.05
2022-12-24T05:20:32.810Z,6.55
2022-12-24T05:23:53.065Z,7.03
2022-12-24T05:26:57.262Z,5.82
2022-12-24T05:29:58.785Z,6.15
2022-12-24T05:33:00.326Z,6.13
2022-12-24T05:36:01.851Z,5.30
2022-12-24T05:39:06.279Z,5.70
2022-12-24T05:42:11.559Z,5.40
2022-12-24T05:45:13.123Z,6.57
2022-12-24T05:48:14.644Z,5.90
2022-12-24T05:51:22.045Z,5.63
2022-12-24T05:54:23.699Z,5.60
2022-12-24T05:57:25.435Z,5.45
2022-12-24T06:00:27.524Z,5.60
2022-12-24T06:03:29.818Z,6.13
2022-12-24T06:06:31.470Z,6.30
2022-12-24T06:09:33.279Z,6.80
2022-12-24T06:12:35.272Z,5.53
2022-12-24T06:15:36.981Z,5.53
2022-12-24T06:18:40.010Z,6.05
2022-12-24T06:21:41.594Z,5.40
2022-12-24T06:24:43.192Z,5.40
2022-12-24T06:27:44.718Z,5.03
2022-12-24T06:30:48.531Z,6.45
2022-12-24T06:33:51.150Z,5.93
2022-12-24T06:36:52.694Z,5.82
2022-12-24T06:39:54.243Z,5.45
2022-12-24T06:42:55.873Z,5.82
2022-12-24T06:45:57.500Z,5.13
2022-12-24T06:49:00.480Z,5.85
2022-12-24T06:52:02.026Z,6.00
2022-12-24T06:55:04.219Z,5.95
2022-12-24T06:58:05.963Z,5.30
2022-12-24T07:01:10.523Z,5.97
2022-12-24T07:04:19.703Z,5.45
2022-12-24T07:07:21.815Z,6.22
2022-12-24T07:10:23.417Z,7.15
2022-12-24T07:13:24.929Z,6.22
2022-12-24T07:16:26.589Z,6.60
2022-12-24T07:19:28.230Z,7.13
2022-12-24T07:22:29.797Z,7.82
2022-12-24T07:25:31.368Z,7.50
2022-12-24T07:28:33.671Z,6.72
2022-12-24T07:31:35.257Z,7.43
2022-12-24T07:34:37.087Z,7.00
2022-12-24T07:37:38.683Z,7.63
2022-12-24T07:40:40.273Z,7.97
2022-12-24T07:43:41.913Z,7.20
2022-12-24T07:46:44.434Z,7.55
2022-12-24T07:49:46.255Z,7.43
2022-12-24T07:52:47.862Z,7.05
2022-12-24T07:55:49.714Z,6.57
2022-12-24T07:58:52.114Z,6.80
2022-12-24T08:01:53.852Z,6.82
2022-12-24T08:04:55.701Z,8.48
2022-12-24T08:07:57.221Z,6.85
2022-12-24T08:11:05.809Z,6.35
2022-12-24T08:14:07.593Z,6.22
2022-12-24T08:17:09.119Z,7.15
2022-12-24T08:20:11.593Z,6.82
2022-12-24T08:23:13.280Z,6.68
2022-12-24T08:26:14.956Z,7.38
2022-12-24T08:29:16.570Z,6.35
2022-12-24T08:32:18.550Z,7.45
2022-12-24T08:35:20.554Z,7.13
2022-12-24T08:38:22.739Z,7.60
2022-12-24T08:41:24.391Z,6.72
2022-12-24T08:44:26.095Z,6.30
2022-12-24T08:47:27.638Z,6.97
2022-12-24T08:50:29.290Z,6.97
2022-12-24T08:53:30.823Z,6.93
2022-12-24T08:56:34.362Z,6.38
2022-12-24T08:59:35.893Z,7.45
2022-12-24T09:02:37.588Z,7.50
2022-12-24T09:05:40.233Z,8.15
2022-12-24T09:08:41.874Z,7.63
2022-12-24T09:11:43.470Z,6.90
2022-12-24T09:14:45.031Z,8.10
2022-12-24T09:17:46.965Z,8.05
2022-12-24T09:20:52.412Z,6.82
2022-12-24T09:23:57.200Z,6.60
2022-12-24T09:26:59.199Z,6.90
2022-12-24T09:30:00.846Z,7.25
2022-12-24T09:33:02.465Z,8.07
2022-12-24T09:36:05.520Z,7.35
2022-12-24T09:39:07.304Z,7.22
2022-12-24T09:42:48.772Z,6.93
2022-12-24T09:46:09.144Z,7.95
2022-12-24T09:49:17.117Z,8.52
2022-12-24T09:52:35.335Z,7.00
2022-12-24T09:55:44.078Z,7.90
2022-12-24T09:58:58.376Z,7.00
2022-12-24T10:02:01.204Z,8.88
2022-12-24T10:05:02.850Z,7.72
2022-12-24T10:08:21.727Z,7.93
2022-12-24T10:11:45.570Z,7.13
2022-12-24T10:14:55.657Z,7.50
2022-12-24T10:18:18.540Z,8.40
2022-12-24T10:21:58.000Z,7.60
2022-12-24T10:25:06.397Z,6.78
2022-12-24T10:28:19.004Z,7.72
2022-12-24T10:31:26.501Z,7.95
2022-12-24T10:34:33.428Z,7.43
2022-12-24T10:37:35.031Z,8.02
2022-12-24T10:40:41.644Z,8.35
2022-12-24T10:43:44.896Z,7.00
2022-12-24T10:46:47.661Z,8.27
2022-12-24T10:50:00.916Z,8.57
2022-12-24T10:53:24.544Z,8.45
2022-12-24T10:56:26.059Z,7.97
2022-12-24T10:59:31.225Z,7.80
2022-12-24T11:02:36.192Z,8.23
2022-12-24T11:05:39.254Z,8.48
2022-12-24T11:08:44.941Z,7.40
2022-12-24T11:11:46.533Z,8.13
2022-12-24T11:14:49.322Z,8.05
2022-12-24T11:17:56.676Z,9.65
2022-12-24T11:21:00.768Z,9.38
2022-12-24T11:24:26.312Z,8.60
2022-12-24T11:27:50.621Z,8.18
2022-12-24T11:31:00.249Z,7.32
2022-12-24T11:34:25.233Z,8.68
2022-12-24T11:37:26.918Z,9.20
2022-12-24T11:40:49.140Z,8.98
2022-12-24T11:43:57.742Z,7.22
2022-12-24T11:46:59.398Z,7.43
2022-12-24T11:50:22.308Z,7.80
2022-12-24T11:53:45.041Z,7.57
2022-12-24T11:56:53.555Z,9.18
2022-12-24T11:59:55.146Z,8.25
2022-12-24T12:03:01.309Z,8.77
2022-12-24T12:06:09.056Z,8.57
2022-12-24T12:09:19.118Z,8.75
2022-12-24T12:12:30.264Z,8.38
2022-12-24T12:15:42.390Z,8.68
2022-12-24T12:18:51.797Z,7.78
2022-12-24T12:21:55.277Z,8.05
2022-12-24T12:24:58.890Z,7.03
2022-12-24T12:28:03.284Z,8.40
2022-12-24T12:31:19.346Z,7.45
2022-12-24T12:34:37.461Z,7.13
2022-12-24T12:37:44.384Z,8.02
2022-12-24T12:41:01.450Z,8.30
2022-12-24T12:44:16.018Z,7.15
2022-12-24T12:47:17.487Z,6.97
2022-12-24T12:50:40.563Z,7.45
2022-12-24T12:54:04.516Z,7.32
2022-12-24T12:57:11.337Z,7.13
2022-12-24T13:00:18.610Z,7.35
2022-12-24T13:03:35.321Z,7.55
2022-12-24T13:07:03.105Z,6.68
2022-12-24T13:10:16.492Z,6.78
2022-12-24T13:13:57.748Z,6.93
2022-12-24T13:17:17.356Z,7.20
2022-12-24T13:20:29.599Z,6.35
2022-12-24T13:23:31.462Z,6.72
2022-12-24T13:26:33.553Z,6.68
2022-12-24T13:29:35.055Z,7.28
2022-12-24T13:32:56.135Z,6.50
2022-12-24T13:36:01.146Z,8.32
2022-12-24T13:39:02.709Z,6.07
2022-12-24T13:42:04.365Z,7.13
2022-12-24T13:45:34.202Z,7.43
2022-12-24T13:48:35.901Z,5.53
2022-12-24T13:51:37.443Z,7.65
2022-12-24T13:54:49.533Z,6.53
2022-12-24T13:58:05.432Z,6.82
2022-12-24T14:01:14.946Z,7.07
2022-12-24T14:04:27.884Z,6.53
2022-12-24T14:07:30.031Z,7.88
2022-12-24T14:10:43.886Z,7.10
2022-12-24T14:13:48.207Z,7.03
2022-12-24T14:16:51.435Z,7.45
2022-12-24T14:19:55.923Z,6.72
2022-12-24T14:22:57.894Z,6.72
2022-12-24T14:26:02.289Z,7.65
2022-12-24T14:29:13.413Z,6.85
2022-12-24T14:32:16.713Z,7.13
2022-12-24T14:35:27.325Z,6.70
2022-12-24T14:38:29.650Z,7.68
2022-12-24T14:41:53.262Z,6.72
2022-12-24T14:45:37.467Z,6.82
2022-12-24T14:49:11.513Z,6.82
2022-12-24T14:52:54.661Z,6.57
2022-12-24T14:55:46.290Z,6.15
2022-12-24T14:58:48.376Z,5.93
2022-12-24T15:01:50.097Z,6.15
2022-12-24T15:05:10.242Z,6.75
2022-12-24T15:08:18.372Z,6.10
2022-12-24T15:11:22.993Z,6.40
2022-12-24T15:14:28.360Z,6.38
2022-12-24T15:17:30.093Z,6.53
2022-12-24T15:20:32.463Z,7.40
2022-12-24T15:23:36.554Z,5.88
2022-12-24T15:26:44.900Z,7.00
2022-12-24T15:29:49.113Z,6.55
2022-12-24T15:32:53.191Z,6.75
2022-12-24T15:35:56.570Z,7.47
2022-12-24T15:39:00.809Z,6.82
2022-12-24T15:42:14.962Z,7.97
2022-12-24T15:45:27.294Z,7.28
2022-12-24T15:48:32.491Z,6.95
2022-12-24T15:51:40.117Z,7.38
2022-12-24T15:54:55.459Z,7.63
2022-12-24T15:57:59.043Z,7.38
2022-12-24T16:01:09.810Z,7.07
2022-12-24T16:04:16.744Z,8.25
2022-12-24T16:07:26.691Z,7.88
2022-12-24T16:10:28.264Z,6.75
2022-12-24T16:13:32.292Z,6.70
2022-12-24T16:16:46.129Z,6.20
2022-12-24T16:19:53.245Z,7.28
2022-12-24T16:22:55.099Z,7.38
2022-12-24T16:25:58.970Z,7.40
2022-12-24T16:29:00.872Z,8.07
2022-12-24T16:32:02.407Z,7.40
2022-12-24T16:35:07.820Z,7.63
2022-12-24T16:38:11.097Z,7.35
2022-12-24T16:41:13.057Z,7.25
2022-12-24T16:44:14.577Z,6.25
2022-12-24T16:47:20.321Z,8.23
2022-12-24T16:50:22.033Z,13.57
2022-12-24T16:53:23.948Z,14.30
2022-12-24T16:56:25.510Z,18.98
2022-12-24T16:59:27.079Z,12.88
2022-12-24T17:02:28.771Z,10.80
2022-12-24T17:05:30.551Z,11.45
2022-12-24T17:08:32.204Z,18.95
2022-12-24T17:11:33.921Z,12.70
2022-12-24T17:14:36.157Z,10.73
2022-12-24T17:17:37.995Z,9.10
2022-12-24T17:20:39.529Z,8.50
2022-12-24T17:23:41.897Z,9.07
2022-12-24T17:26:43.715Z,8.88
2022-12-24T17:29:45.579Z,9.73
2022-12-24T17:32:47.149Z,9.77
2022-12-24T17:35:49.337Z,7.80
2022-12-24T17:38:50.885Z,8.65
2022-12-24T17:41:52.441Z,9.50
2022-12-24T17:44:53.986Z,10.13
2022-12-24T17:47:55.526Z,9.43
2022-12-24T17:50:57.261Z,10.73
2022-12-24T17:53:59.642Z,9.55
2022-12-24T17:57:01.680Z,8.27
2022-12-24T18:00:04.051Z,8.73
2022-12-24T18:03:05.950Z,10.02
2022-12-24T18:06:09.280Z,8.52
2022-12-24T18:09:10.823Z,10.10
2022-12-24T18:12:13.676Z,8.75
2022-12-24T18:15:19.126Z,9.35
2022-12-24T18:18:20.959Z,10.60
2022-12-24T18:21:24.940Z,9.95
2022-12-24T18:24:26.576Z,10.70
2022-12-24T18:27:28.112Z,10.10
2022-12-24T18:30:29.640Z,10.13
2022-12-24T18:33:33.341Z,9.77
2022-12-24T18:36:35.610Z,9.57
2022-12-24T18:39:37.226Z,10.40
2022-12-24T18:42:41.083Z,11.88
2022-12-24T18:45:46.574Z,11.80
2022-12-24T18:48:48.443Z,12.20
2022-12-24T18:51:50.022Z,10.35
2022-12-24T18:54:51.973Z,11.77
2022-12-24T18:57:53.600Z,10.10
2022-12-24T19:00:55.461Z,9.63
2022-12-24T19:03:57.486Z,10.27
2022-12-24T19:07:00.320Z,9.32
2022-12-24T19:10:01.960Z,8.82
2022-12-24T19:13:03.862Z,8.35
2022-12-24T19:16:07.577Z,9.25
2022-12-24T19:19:11.195Z,9.32
2022-12-24T19:22:17.286Z,9.68
2022-12-24T19:25:18.913Z,8.85
2022-12-24T19:28:25.712Z,9.15
2022-12-24T19:31:27.680Z,9.68
2022-12-24T19:34:29.353Z,9.95
2022-12-24T19:37:31.248Z,10.32
2022-12-24T19:40:36.564Z,11.25
2022-12-24T19:43:41.106Z,9.73
2022-12-24T19:46:42.698Z,9.68
2022-12-24T19:49:44.284Z,10.35
2022-12-24T19:52:46.025Z,9.93
2022-12-24T19:55:47.547Z,11.55
2022-12-24T19:58:49.631Z,12.85
2022-12-24T20:01:53.564Z,11.70
2022-12-24T20:04:55.451Z,15.63
2022-12-24T20:07:57.126Z,13.18
2022-12-24T20:10:58.769Z,13.50
2022-12-24T20:14:02.306Z,12.02
2022-12-24T20:17:04.071Z,10.70
2022-12-24T20:20:06.375Z,12.48
2022-12-24T20:23:09.569Z,10.57
2022-12-24T20:26:13.723Z,11.88
2022-12-24T20:29:15.321Z,10.98
2022-12-24T20:32:16.927Z,11.30
2022-12-24T20:35:18.588Z,12.15
2022-12-24T20:38:20.219Z,12.23
2022-12-24T20:41:23.683Z,11.80
2022-12-24T20:44:25.264Z,11.07
2022-12-24T20:47:27.533Z,11.00
2022-12-24T20:50:29.086Z,12.23
2022-12-24T20:53:30.632Z,11.23
2022-12-24T20:56:32.332Z,11.82
2022-12-24T20:59:34.037Z,11.50
2022-12-24T21:02:36.126Z,10.98
2022-12-24T21:05:41.019Z,10.25
2022-12-24T21:08:42.770Z,12.38
2022-12-24T21:11:50.488Z,10.43
2022-12-24T21:14:52.142Z,10.90
2022-12-24T21:17:54.431Z,11.05
2022-12-24T21:20:55.999Z,9.93
2022-12-24T21:23:57.932Z,9.85
2022-12-24T21:26:59.495Z,10.30
2022-12-24T21:30:01.122Z,10.23
2022-12-24T21:33:02.686Z,9.35
2022-12-24T21:36:04.456Z,8.75
2022-12-24T21:39:06.110Z,9.27
2022-12-24T21:42:07.746Z,9.18
2022-12-24T21:45:10.422Z,9.10
2022-12-24T21:48:31.964Z,8.90
2022-12-24T21:51:33.569Z,9.45
2022-12-24T21:54:35.150Z,10.10
2022-12-24T21:57:54.891Z,9.65
2022-12-24T22:00:56.529Z,10.15
2022-12-24T22:03:58.099Z,9.15
2022-12-24T22:07:19.356Z,9.57
2022-12-24T22:10:39.694Z,9.82
2022-12-24T22:13:41.239Z,9.88
2022-12-24T22:16:43.093Z,9.30
2022-12-24T22:19:44.735Z,10.25
2022-12-24T22:22:47.942Z,9.48
2022-12-24T22:25:49.483Z,9.70
2022-12-24T22:28:51.008Z,9.27
2022-12-24T22:31:52.638Z,11.10
2022-12-24T22:34:54.204Z,9.40
2022-12-24T22:37:59.869Z,10.50
2022-12-24T22:41:07.987Z,8.32
2022-12-24T22:44:10.204Z,9.45
2022-12-24T22:47:11.741Z,9.20
2022-12-24T22:50:13.406Z,8.02
2022-12-24T22:53:14.974Z,8.50
2022-12-24T22:56:19.867Z,8.93
2022-12-24T22:59:21.484Z,8.45
2022-12-24T23:02:28.168Z,8.20
2022-12-24T23:05:30.501Z,8.15
2022-12-24T23:08:34.941Z,7.82
2022-12-24T23:11:36.628Z,8.13
2022-12-24T23:14:56.476Z,7.07
2022-12-24T23:17:58.176Z,7.78
2022-12-24T23:21:05.720Z,7.40
2022-12-24T23:24:08.945Z,6.45
2022-12-24T23:27:10.544Z,7.18
2022-12-24T23:30:12.457Z,6.82
2022-12-24T23:33:14.013Z,7.18
2022-12-24T23:36:16.012Z,6.43
2022-12-24T23:39:17.671Z,6.50
2022-12-24T23:42:19.221Z,6.70
2022-12-24T23:45:20.767Z,6.43
2022-12-24T23:48:23.594Z,7.10
2022-12-24T23:51:27.822Z,6.63
2022-12-24T23:54:29.496Z,6.50
2022-12-24T23:57:31.450Z,7.00
